sensor_id;sensor_type;location;lat;lon;timestamp;temperature;humidity
9772;DHT22;4925;52.588;13.370;2023-04-10T00:00:08;8.50;99.90
9772;DHT22;4925;52.588;13.370;2023-04-10T00:02:35;8.50;99.90
9772;DHT22;4925;52.588;13.370;2023-04-10T00:05:05;8.40;99.90
9772;DHT22;4925;52.588;13.370;2023-04-10T00:07:31;8.40;99.90
9772;DHT22;4925;52.588;13.370;2023-04-10T00:09:56;8.40;99.90
9772;DHT22;4925;52.588;13.370;2023-04-10T00:12:22;8.40;99.90
9772;DHT22;4925;52.588;13.370;2023-04-10T00:14:48;8.40;99.90
9772;DHT22;4925;52.588;13.370;2023-04-10T00:17:13;8.30;99.90
9772;DHT22;4925;52.588;13.370;2023-04-10T00:19:39;8.30;99.90
9772;DHT22;4925;52.588;13.370;2023-04-10T00:22:05;8.30;99.90
9772;DHT22;4925;52.588;13.370;2023-04-10T00:24:30;8.20;99.90
9772;DHT22;4925;52.588;13.370;2023-04-10T00:26:56;8.20;99.90
9772;DHT22;4925;52.588;13.370;2023-04-10T00:29:22;8.20;99.90
9772;DHT22;4925;52.588;13.370;2023-04-10T00:31:48;8.20;99.90
9772;DHT22;4925;52.588;13.370;2023-04-10T00:34:14;8.20;99.90
9772;DHT22;4925;52.588;13.370;2023-04-10T00:36:40;8.20;99.90
9772;DHT22;4925;52.588;13.370;2023-04-10T00:39:07;8.20;99.90
9772;DHT22;4925;52.588;13.370;2023-04-10T00:41:33;8.10;99.90
9772;DHT22;4925;52.588;13.370;2023-04-10T00:43:59;8.10;99.90
9772;DHT22;4925;52.588;13.370;2023-04-10T00:46:25;8.10;99.90
9772;DHT22;4925;52.588;13.370;2023-04-10T00:48:52;8.00;99.90
9772;DHT22;4925;52.588;13.370;2023-04-10T00:51:19;8.00;99.90
9772;DHT22;4925;52.588;13.370;2023-04-10T00:53:46;8.00;99.90
9772;DHT22;4925;52.588;13.370;2023-04-10T00:56:13;7.90;99.90
9772;DHT22;4925;52.588;13.370;2023-04-10T00:58:38;7.90;99.90
9772;DHT22;4925;52.588;13.370;2023-04-10T01:01:04;7.90;99.90
9772;DHT22;4925;52.588;13.370;2023-04-10T01:03:30;7.80;99.90
9772;DHT22;4925;52.588;13.370;2023-04-10T01:08:52;7.80;99.90
9772;DHT22;4925;52.588;13.370;2023-04-10T01:11:26;7.70;99.90
9772;DHT22;4925;52.588;13.370;2023-04-10T01:16:50;7.70;99.90
9772;DHT22;4925;52.588;13.370;2023-04-10T01:19:25;7.70;99.90
9772;DHT22;4925;52.588;13.370;2023-04-10T01:21:54;7.60;99.90
9772;DHT22;4925;52.588;13.370;2023-04-10T01:24:36;7.60;99.90
9772;DHT22;4925;52.588;13.370;2023-04-10T01:29:51;7.60;99.90
9772;DHT22;4925;52.588;13.370;2023-04-10T01:32:21;7.60;99.90
9772;DHT22;4925;52.588;13.370;2023-04-10T01:34:52;7.60;99.90
9772;DHT22;4925;52.588;13.370;2023-04-10T01:37:27;7.60;99.90
9772;DHT22;4925;52.588;13.370;2023-04-10T01:40:02;7.60;99.90
9772;DHT22;4925;52.588;13.370;2023-04-10T01:42:46;7.60;99.90
9772;DHT22;4925;52.588;13.370;2023-04-10T01:45:16;7.60;99.90
9772;DHT22;4925;52.588;13.370;2023-04-10T01:47:43;7.60;99.90
9772;DHT22;4925;52.588;13.370;2023-04-10T01:50:09;7.60;99.90
9772;DHT22;4925;52.588;13.370;2023-04-10T01:52:36;7.50;99.90
9772;DHT22;4925;52.588;13.370;2023-04-10T01:55:03;7.50;99.90
9772;DHT22;4925;52.588;13.370;2023-04-10T01:57:30;7.40;99.90
9772;DHT22;4925;52.588;13.370;2023-04-10T01:59:57;7.40;99.90
9772;DHT22;4925;52.588;13.370;2023-04-10T02:02:22;7.40;99.90
9772;DHT22;4925;52.588;13.370;2023-04-10T02:04:48;7.30;99.90
9772;DHT22;4925;52.588;13.370;2023-04-10T02:10:09;7.30;99.90
9772;DHT22;4925;52.588;13.370;2023-04-10T02:12:52;7.20;99.90
9772;DHT22;4925;52.588;13.370;2023-04-10T02:15:22;7.20;99.90
9772;DHT22;4925;52.588;13.370;2023-04-10T02:17:48;7.20;99.90
9772;DHT22;4925;52.588;13.370;2023-04-10T02:20:15;7.20;99.90
9772;DHT22;4925;52.588;13.370;2023-04-10T02:22:43;7.10;99.90
9772;DHT22;4925;52.588;13.370;2023-04-10T02:25:10;7.10;99.90
9772;DHT22;4925;52.588;13.370;2023-04-10T02:27:36;7.10;99.90
9772;DHT22;4925;52.588;13.370;2023-04-10T02:30:03;7.10;99.90
9772;DHT22;4925;52.588;13.370;2023-04-10T02:32:29;7.10;99.90
9772;DHT22;4925;52.588;13.370;2023-04-10T02:34:56;7.10;99.90
9772;DHT22;4925;52.588;13.370;2023-04-10T02:37:22;7.10;99.90
9772;DHT22;4925;52.588;13.370;2023-04-10T02:39:48;7.10;99.90
9772;DHT22;4925;52.588;13.370;2023-04-10T02:42:13;7.10;99.90
9772;DHT22;4925;52.588;13.370;2023-04-10T02:44:39;7.10;99.90
9772;DHT22;4925;52.588;13.370;2023-04-10T02:47:05;7.00;99.90
9772;DHT22;4925;52.588;13.370;2023-04-10T02:49:32;7.00;99.90
9772;DHT22;4925;52.588;13.370;2023-04-10T02:51:59;7.00;99.90
9772;DHT22;4925;52.588;13.370;2023-04-10T02:54:25;6.90;99.90
9772;DHT22;4925;52.588;13.370;2023-04-10T02:56:50;6.90;99.90
9772;DHT22;4925;52.588;13.370;2023-04-10T02:59:16;6.90;99.90
9772;DHT22;4925;52.588;13.370;2023-04-10T03:01:44;6.80;99.90
9772;DHT22;4925;52.588;13.370;2023-04-10T03:04:10;6.80;99.90
9772;DHT22;4925;52.588;13.370;2023-04-10T03:06:36;6.70;99.90
9772;DHT22;4925;52.588;13.370;2023-04-10T03:09:01;6.70;99.90
9772;DHT22;4925;52.588;13.370;2023-04-10T03:11:27;6.70;99.90
9772;DHT22;4925;52.588;13.370;2023-04-10T03:13:53;6.60;99.90
9772;DHT22;4925;52.588;13.370;2023-04-10T03:16:19;6.60;99.90
9772;DHT22;4925;52.588;13.370;2023-04-10T03:18:45;6.60;99.90
9772;DHT22;4925;52.588;13.370;2023-04-10T03:21:11;6.60;99.90
9772;DHT22;4925;52.588;13.370;2023-04-10T03:23:36;6.60;99.90
9772;DHT22;4925;52.588;13.370;2023-04-10T03:26:02;6.60;99.90
9772;DHT22;4925;52.588;13.370;2023-04-10T03:28:29;6.60;99.90
9772;DHT22;4925;52.588;13.370;2023-04-10T03:30:57;6.50;99.90
9772;DHT22;4925;52.588;13.370;2023-04-10T03:33:22;6.50;99.90
9772;DHT22;4925;52.588;13.370;2023-04-10T03:35:48;6.50;99.90
9772;DHT22;4925;52.588;13.370;2023-04-10T03:38:14;6.40;99.90
9772;DHT22;4925;52.588;13.370;2023-04-10T03:40:40;6.40;99.90
9772;DHT22;4925;52.588;13.370;2023-04-10T03:43:05;6.40;99.90
9772;DHT22;4925;52.588;13.370;2023-04-10T03:45:31;6.30;99.90
9772;DHT22;4925;52.588;13.370;2023-04-10T03:47:58;6.30;99.90
9772;DHT22;4925;52.588;13.370;2023-04-10T03:50:23;6.30;99.90
9772;DHT22;4925;52.588;13.370;2023-04-10T03:52:50;6.20;99.90
9772;DHT22;4925;52.588;13.370;2023-04-10T03:55:16;6.20;99.90
9772;DHT22;4925;52.588;13.370;2023-04-10T03:57:48;6.20;99.90
9772;DHT22;4925;52.588;13.370;2023-04-10T04:00:14;6.20;99.90
9772;DHT22;4925;52.588;13.370;2023-04-10T04:02:41;6.10;99.90
9772;DHT22;4925;52.588;13.370;2023-04-10T04:05:07;6.10;99.90
9772;DHT22;4925;52.588;13.370;2023-04-10T04:07:32;6.10;99.90
9772;DHT22;4925;52.588;13.370;2023-04-10T04:09:58;6.10;99.90
9772;DHT22;4925;52.588;13.370;2023-04-10T04:12:25;6.00;99.90
9772;DHT22;4925;52.588;13.370;2023-04-10T04:14:51;6.00;99.90
9772;DHT22;4925;52.588;13.370;2023-04-10T04:17:16;6.00;99.90
9772;DHT22;4925;52.588;13.370;2023-04-10T04:19:42;6.00;99.90
9772;DHT22;4925;52.588;13.370;2023-04-10T04:22:10;6.00;99.90
9772;DHT22;4925;52.588;13.370;2023-04-10T04:24:35;6.00;99.90
9772;DHT22;4925;52.588;13.370;2023-04-10T04:27:01;6.00;99.90
9772;DHT22;4925;52.588;13.370;2023-04-10T04:29:27;5.90;99.90
9772;DHT22;4925;52.588;13.370;2023-04-10T04:31:52;5.90;99.90
9772;DHT22;4925;52.588;13.370;2023-04-10T04:34:18;6.00;99.90
9772;DHT22;4925;52.588;13.370;2023-04-10T04:36:44;6.00;99.90
9772;DHT22;4925;52.588;13.370;2023-04-10T04:39:10;6.10;99.90
9772;DHT22;4925;52.588;13.370;2023-04-10T04:41:35;6.10;99.90
9772;DHT22;4925;52.588;13.370;2023-04-10T04:44:01;6.10;99.90
9772;DHT22;4925;52.588;13.370;2023-04-10T04:46:27;6.20;99.90
9772;DHT22;4925;52.588;13.370;2023-04-10T04:48:53;6.20;99.90
9772;DHT22;4925;52.588;13.370;2023-04-10T04:51:19;6.30;99.90
9772;DHT22;4925;52.588;13.370;2023-04-10T04:53:45;6.30;99.90
9772;DHT22;4925;52.588;13.370;2023-04-10T04:56:10;6.30;99.90
9772;DHT22;4925;52.588;13.370;2023-04-10T04:58:36;6.40;99.90
9772;DHT22;4925;52.588;13.370;2023-04-10T05:01:02;6.40;99.90
9772;DHT22;4925;52.588;13.370;2023-04-10T05:03:28;6.40;99.90
9772;DHT22;4925;52.588;13.370;2023-04-10T05:05:54;6.50;99.90
9772;DHT22;4925;52.588;13.370;2023-04-10T05:08:20;6.50;99.90
9772;DHT22;4925;52.588;13.370;2023-04-10T05:10:45;6.60;99.90
9772;DHT22;4925;52.588;13.370;2023-04-10T05:13:11;6.60;99.90
9772;DHT22;4925;52.588;13.370;2023-04-10T05:15:37;6.70;99.90
9772;DHT22;4925;52.588;13.370;2023-04-10T05:18:04;6.70;99.90
9772;DHT22;4925;52.588;13.370;2023-04-10T05:20:29;6.80;99.90
9772;DHT22;4925;52.588;13.370;2023-04-10T05:22:55;6.80;99.90
9772;DHT22;4925;52.588;13.370;2023-04-10T05:25:22;6.90;99.90
9772;DHT22;4925;52.588;13.370;2023-04-10T05:27:48;7.00;99.90
9772;DHT22;4925;52.588;13.370;2023-04-10T05:30:14;7.10;99.90
9772;DHT22;4925;52.588;13.370;2023-04-10T05:32:39;7.20;99.90
9772;DHT22;4925;52.588;13.370;2023-04-10T05:35:06;7.30;99.90
9772;DHT22;4925;52.588;13.370;2023-04-10T05:37:31;7.40;99.90
9772;DHT22;4925;52.588;13.370;2023-04-10T05:39:58;7.60;99.90
9772;DHT22;4925;52.588;13.370;2023-04-10T05:42:23;7.70;99.90
9772;DHT22;4925;52.588;13.370;2023-04-10T05:44:50;7.80;99.90
9772;DHT22;4925;52.588;13.370;2023-04-10T05:47:16;8.00;99.90
9772;DHT22;4925;52.588;13.370;2023-04-10T05:49:41;8.10;99.90
9772;DHT22;4925;52.588;13.370;2023-04-10T05:52:07;8.20;99.90
9772;DHT22;4925;52.588;13.370;2023-04-10T05:54:33;8.40;99.90
9772;DHT22;4925;52.588;13.370;2023-04-10T05:56:58;8.50;99.90
9772;DHT22;4925;52.588;13.370;2023-04-10T05:59:26;8.70;99.90
9772;DHT22;4925;52.588;13.370;2023-04-10T06:01:52;8.80;99.90
9772;DHT22;4925;52.588;13.370;2023-04-10T06:04:18;9.00;99.90
9772;DHT22;4925;52.588;13.370;2023-04-10T06:06:45;9.00;99.90
9772;DHT22;4925;52.588;13.370;2023-04-10T06:09:11;9.20;99.90
9772;DHT22;4925;52.588;13.370;2023-04-10T06:11:37;9.30;99.90
9772;DHT22;4925;52.588;13.370;2023-04-10T06:14:02;9.30;99.90
9772;DHT22;4925;52.588;13.370;2023-04-10T06:16:28;9.40;99.90
9772;DHT22;4925;52.588;13.370;2023-04-10T06:18:54;9.60;99.90
9772;DHT22;4925;52.588;13.370;2023-04-10T06:21:20;9.70;99.90
9772;DHT22;4925;52.588;13.370;2023-04-10T06:23:45;9.80;99.90
9772;DHT22;4925;52.588;13.370;2023-04-10T06:26:11;9.90;99.90
9772;DHT22;4925;52.588;13.370;2023-04-10T06:28:37;10.00;99.90
9772;DHT22;4925;52.588;13.370;2023-04-10T06:31:04;10.10;99.90
9772;DHT22;4925;52.588;13.370;2023-04-10T06:33:30;10.20;99.90
9772;DHT22;4925;52.588;13.370;2023-04-10T06:35:57;10.20;99.90
9772;DHT22;4925;52.588;13.370;2023-04-10T06:38:23;10.30;99.90
9772;DHT22;4925;52.588;13.370;2023-04-10T06:40:48;10.40;99.90
9772;DHT22;4925;52.588;13.370;2023-04-10T06:43:14;10.40;99.90
9772;DHT22;4925;52.588;13.370;2023-04-10T06:45:40;10.50;99.90
9772;DHT22;4925;52.588;13.370;2023-04-10T06:48:06;10.50;99.90
9772;DHT22;4925;52.588;13.370;2023-04-10T06:50:31;10.60;99.90
9772;DHT22;4925;52.588;13.370;2023-04-10T06:52:57;10.70;99.90
9772;DHT22;4925;52.588;13.370;2023-04-10T06:55:27;10.70;99.90
9772;DHT22;4925;52.588;13.370;2023-04-10T06:57:53;10.80;99.90
9772;DHT22;4925;52.588;13.370;2023-04-10T07:00:20;10.70;99.90
9772;DHT22;4925;52.588;13.370;2023-04-10T07:02:46;10.80;99.90
9772;DHT22;4925;52.588;13.370;2023-04-10T07:05:13;11.00;99.90
9772;DHT22;4925;52.588;13.370;2023-04-10T07:07:38;11.20;99.90
9772;DHT22;4925;52.588;13.370;2023-04-10T07:10:04;11.30;99.90
9772;DHT22;4925;52.588;13.370;2023-04-10T07:12:31;11.40;99.90
9772;DHT22;4925;52.588;13.370;2023-04-10T07:14:57;11.50;99.90
9772;DHT22;4925;52.588;13.370;2023-04-10T07:17:23;11.60;99.90
9772;DHT22;4925;52.588;13.370;2023-04-10T07:19:48;11.60;99.90
9772;DHT22;4925;52.588;13.370;2023-04-10T07:22:14;11.50;99.90
9772;DHT22;4925;52.588;13.370;2023-04-10T07:24:40;11.50;99.90
9772;DHT22;4925;52.588;13.370;2023-04-10T07:27:06;11.40;99.90
9772;DHT22;4925;52.588;13.370;2023-04-10T07:29:32;11.40;99.90
9772;DHT22;4925;52.588;13.370;2023-04-10T07:31:57;11.40;99.90
9772;DHT22;4925;52.588;13.370;2023-04-10T07:34:24;11.40;99.90
9772;DHT22;4925;52.588;13.370;2023-04-10T07:36:50;11.50;99.90
9772;DHT22;4925;52.588;13.370;2023-04-10T07:39:16;11.60;99.90
9772;DHT22;4925;52.588;13.370;2023-04-10T07:41:42;11.60;99.90
9772;DHT22;4925;52.588;13.370;2023-04-10T07:44:08;11.70;99.90
9772;DHT22;4925;52.588;13.370;2023-04-10T07:46:33;11.60;99.90
9772;DHT22;4925;52.588;13.370;2023-04-10T07:48:59;11.70;99.90
9772;DHT22;4925;52.588;13.370;2023-04-10T07:51:25;11.70;99.90
9772;DHT22;4925;52.588;13.370;2023-04-10T07:53:51;11.90;99.90
9772;DHT22;4925;52.588;13.370;2023-04-10T07:56:18;11.90;99.90
9772;DHT22;4925;52.588;13.370;2023-04-10T07:58:45;12.10;99.90
9772;DHT22;4925;52.588;13.370;2023-04-10T08:01:11;12.40;99.90
9772;DHT22;4925;52.588;13.370;2023-04-10T08:03:40;12.50;99.90
9772;DHT22;4925;52.588;13.370;2023-04-10T08:06:07;12.50;99.90
9772;DHT22;4925;52.588;13.370;2023-04-10T08:08:37;12.50;99.90
9772;DHT22;4925;52.588;13.370;2023-04-10T08:13:48;12.50;99.90
9772;DHT22;4925;52.588;13.370;2023-04-10T08:16:13;12.30;99.90
9772;DHT22;4925;52.588;13.370;2023-04-10T08:18:39;12.40;99.90
9772;DHT22;4925;52.588;13.370;2023-04-10T08:21:05;12.60;99.90
9772;DHT22;4925;52.588;13.370;2023-04-10T08:23:31;12.70;99.90
9772;DHT22;4925;52.588;13.370;2023-04-10T08:25:57;12.60;99.90
9772;DHT22;4925;52.588;13.370;2023-04-10T08:28:22;12.70;99.90
9772;DHT22;4925;52.588;13.370;2023-04-10T08:30:48;12.80;99.90
9772;DHT22;4925;52.588;13.370;2023-04-10T08:33:14;12.90;99.90
9772;DHT22;4925;52.588;13.370;2023-04-10T08:35:40;13.20;99.90
9772;DHT22;4925;52.588;13.370;2023-04-10T08:38:05;13.40;99.90
9772;DHT22;4925;52.588;13.370;2023-04-10T08:40:36;13.30;99.90
9772;DHT22;4925;52.588;13.370;2023-04-10T08:43:01;13.30;99.90
9772;DHT22;4925;52.588;13.370;2023-04-10T08:45:27;13.40;99.90
9772;DHT22;4925;52.588;13.370;2023-04-10T08:47:56;13.30;99.90
9772;DHT22;4925;52.588;13.370;2023-04-10T08:50:22;13.60;99.90
9772;DHT22;4925;52.588;13.370;2023-04-10T08:52:50;13.80;99.90
9772;DHT22;4925;52.588;13.370;2023-04-10T08:55:18;14.00;99.90
9772;DHT22;4925;52.588;13.370;2023-04-10T08:57:45;14.20;99.90
9772;DHT22;4925;52.588;13.370;2023-04-10T09:00:11;14.30;99.90
9772;DHT22;4925;52.588;13.370;2023-04-10T09:02:38;14.30;99.90
9772;DHT22;4925;52.588;13.370;2023-04-10T09:05:05;14.40;99.90
9772;DHT22;4925;52.588;13.370;2023-04-10T09:07:34;14.40;99.90
9772;DHT22;4925;52.588;13.370;2023-04-10T09:10:00;14.50;99.90
9772;DHT22;4925;52.588;13.370;2023-04-10T09:12:25;14.40;99.90
9772;DHT22;4925;52.588;13.370;2023-04-10T09:14:51;14.70;99.90
9772;DHT22;4925;52.588;13.370;2023-04-10T09:17:22;14.50;99.90
9772;DHT22;4925;52.588;13.370;2023-04-10T09:19:52;14.50;99.90
9772;DHT22;4925;52.588;13.370;2023-04-10T09:22:31;14.50;99.90
9772;DHT22;4925;52.588;13.370;2023-04-10T09:24:58;14.80;99.90
9772;DHT22;4925;52.588;13.370;2023-04-10T09:27:29;15.00;99.90
9772;DHT22;4925;52.588;13.370;2023-04-10T09:29:56;15.00;99.90
9772;DHT22;4925;52.588;13.370;2023-04-10T09:32:43;14.70;99.90
9772;DHT22;4925;52.588;13.370;2023-04-10T09:35:14;14.70;99.90
9772;DHT22;4925;52.588;13.370;2023-04-10T09:37:41;14.70;99.90
9772;DHT22;4925;52.588;13.370;2023-04-10T09:40:27;14.80;99.90
9772;DHT22;4925;52.588;13.370;2023-04-10T09:42:53;14.90;99.90
9772;DHT22;4925;52.588;13.370;2023-04-10T09:45:20;15.00;99.90
9772;DHT22;4925;52.588;13.370;2023-04-10T09:48:06;15.20;99.90
9772;DHT22;4925;52.588;13.370;2023-04-10T09:50:39;15.50;99.90
9772;DHT22;4925;52.588;13.370;2023-04-10T09:53:09;15.80;99.90
9772;DHT22;4925;52.588;13.370;2023-04-10T09:55:35;16.00;99.90
9772;DHT22;4925;52.588;13.370;2023-04-10T09:58:02;16.00;99.90
9772;DHT22;4925;52.588;13.370;2023-04-10T10:00:28;16.20;99.90
9772;DHT22;4925;52.588;13.370;2023-04-10T10:02:56;16.10;99.90
9772;DHT22;4925;52.588;13.370;2023-04-10T10:05:23;16.10;99.90
9772;DHT22;4925;52.588;13.370;2023-04-10T10:07:52;16.30;99.90
9772;DHT22;4925;52.588;13.370;2023-04-10T10:10:18;16.40;99.90
9772;DHT22;4925;52.588;13.370;2023-04-10T10:13:03;16.50;99.90
9772;DHT22;4925;52.588;13.370;2023-04-10T10:20:49;16.70;99.90
9772;DHT22;4925;52.588;13.370;2023-04-10T10:23:16;16.90;99.90
9772;DHT22;4925;52.588;13.370;2023-04-10T10:25:44;17.00;99.90
9772;DHT22;4925;52.588;13.370;2023-04-10T10:28:13;17.20;99.90
9772;DHT22;4925;52.588;13.370;2023-04-10T10:30:39;17.10;99.60
9772;DHT22;4925;52.588;13.370;2023-04-10T10:33:06;17.00;99.90
9772;DHT22;4925;52.588;13.370;2023-04-10T10:35:35;17.40;99.90
9772;DHT22;4925;52.588;13.370;2023-04-10T10:38:03;17.30;99.10
9772;DHT22;4925;52.588;13.370;2023-04-10T10:43:36;17.00;99.80
9772;DHT22;4925;52.588;13.370;2023-04-10T10:46:27;17.10;99.70
9772;DHT22;4925;52.588;13.370;2023-04-10T10:48:58;17.60;99.40
9772;DHT22;4925;52.588;13.370;2023-04-10T10:51:42;17.80;98.30
9772;DHT22;4925;52.588;13.370;2023-04-10T10:54:31;18.40;97.50
9772;DHT22;4925;52.588;13.370;2023-04-10T10:56:59;18.30;96.00
9772;DHT22;4925;52.588;13.370;2023-04-10T11:00:00;18.30;96.60
9772;DHT22;4925;52.588;13.370;2023-04-10T11:02:26;18.10;96.30
9772;DHT22;4925;52.588;13.370;2023-04-10T11:04:52;18.30;96.80
9772;DHT22;4925;52.588;13.370;2023-04-10T11:07:18;18.40;96.10
9772;DHT22;4925;52.588;13.370;2023-04-10T11:12:15;18.00;96.60
9772;DHT22;4925;52.588;13.370;2023-04-10T11:14:42;17.40;96.80
9772;DHT22;4925;52.588;13.370;2023-04-10T11:17:09;17.40;97.40
9772;DHT22;4925;52.588;13.370;2023-04-10T11:19:59;17.20;97.20
9772;DHT22;4925;52.588;13.370;2023-04-10T11:22:25;17.60;97.20
9772;DHT22;4925;52.588;13.370;2023-04-10T11:24:56;18.10;96.90
9772;DHT22;4925;52.588;13.370;2023-04-10T11:27:39;18.30;95.60
9772;DHT22;4925;52.588;13.370;2023-04-10T11:30:31;18.20;95.80
9772;DHT22;4925;52.588;13.370;2023-04-10T11:32:58;17.90;95.80
9772;DHT22;4925;52.588;13.370;2023-04-10T11:35:25;18.50;96.10
9772;DHT22;4925;52.588;13.370;2023-04-10T11:38:16;18.90;95.00
9772;DHT22;4925;52.588;13.370;2023-04-10T11:40:56;19.10;94.20
9772;DHT22;4925;52.588;13.370;2023-04-10T11:43:22;19.20;92.20
9772;DHT22;4925;52.588;13.370;2023-04-10T11:45:47;19.50;92.10
9772;DHT22;4925;52.588;13.370;2023-04-10T11:48:14;19.70;91.00
9772;DHT22;4925;52.588;13.370;2023-04-10T11:50:41;19.80;90.70
9772;DHT22;4925;52.588;13.370;2023-04-10T11:53:20;20.00;89.70
9772;DHT22;4925;52.588;13.370;2023-04-10T11:55:46;19.70;90.20
9772;DHT22;4925;52.588;13.370;2023-04-10T12:00:58;20.10;87.50
9772;DHT22;4925;52.588;13.370;2023-04-10T12:03:38;20.40;87.60
9772;DHT22;4925;52.588;13.370;2023-04-10T12:06:07;20.60;85.60
9772;DHT22;4925;52.588;13.370;2023-04-10T12:08:38;20.70;85.20
9772;DHT22;4925;52.588;13.370;2023-04-10T12:11:04;19.90;85.30
9772;DHT22;4925;52.588;13.370;2023-04-10T12:13:30;20.00;86.30
9772;DHT22;4925;52.588;13.370;2023-04-10T12:15:58;20.00;85.40
9772;DHT22;4925;52.588;13.370;2023-04-10T12:18:26;19.90;85.20
9772;DHT22;4925;52.588;13.370;2023-04-10T12:20:53;20.20;84.60
9772;DHT22;4925;52.588;13.370;2023-04-10T12:23:26;19.80;84.20
9772;DHT22;4925;52.588;13.370;2023-04-10T12:25:58;20.30;84.40
9772;DHT22;4925;52.588;13.370;2023-04-10T12:28:30;20.60;80.70
9772;DHT22;4925;52.588;13.370;2023-04-10T12:30:56;20.30;82.70
9772;DHT22;4925;52.588;13.370;2023-04-10T12:33:23;20.70;80.70
9772;DHT22;4925;52.588;13.370;2023-04-10T12:35:50;20.60;80.60
9772;DHT22;4925;52.588;13.370;2023-04-10T12:38:35;20.80;79.70
9772;DHT22;4925;52.588;13.370;2023-04-10T12:41:02;21.10;79.30
9772;DHT22;4925;52.588;13.370;2023-04-10T12:43:36;21.20;78.40
9772;DHT22;4925;52.588;13.370;2023-04-10T12:46:03;21.30;74.10
9772;DHT22;4925;52.588;13.370;2023-04-10T12:48:29;20.20;74.40
9772;DHT22;4925;52.588;13.370;2023-04-10T12:50:55;20.20;76.70
9772;DHT22;4925;52.588;13.370;2023-04-10T12:53:21;19.80;79.10
9772;DHT22;4925;52.588;13.370;2023-04-10T12:56:04;20.10;78.50
9772;DHT22;4925;52.588;13.370;2023-04-10T12:58:31;20.40;77.00
9772;DHT22;4925;52.588;13.370;2023-04-10T13:01:04;20.70;75.80
9772;DHT22;4925;52.588;13.370;2023-04-10T13:03:32;20.40;74.70
9772;DHT22;4925;52.588;13.370;2023-04-10T13:05:58;19.90;76.40
9772;DHT22;4925;52.588;13.370;2023-04-10T13:08:24;19.70;77.90
9772;DHT22;4925;52.588;13.370;2023-04-10T13:10:50;19.20;79.10
9772;DHT22;4925;52.588;13.370;2023-04-10T13:13:16;19.30;79.20
9772;DHT22;4925;52.588;13.370;2023-04-10T13:15:42;19.20;77.90
9772;DHT22;4925;52.588;13.370;2023-04-10T13:18:08;19.30;79.50
9772;DHT22;4925;52.588;13.370;2023-04-10T13:20:38;19.10;78.00
9772;DHT22;4925;52.588;13.370;2023-04-10T13:23:05;19.30;78.20
9772;DHT22;4925;52.588;13.370;2023-04-10T13:25:32;19.30;78.10
9772;DHT22;4925;52.588;13.370;2023-04-10T13:27:59;19.50;79.30
9772;DHT22;4925;52.588;13.370;2023-04-10T13:30:26;19.60;76.80
9772;DHT22;4925;52.588;13.370;2023-04-10T13:32:52;19.90;76.50
9772;DHT22;4925;52.588;13.370;2023-04-10T13:35:17;20.20;76.00
9772;DHT22;4925;52.588;13.370;2023-04-10T13:37:43;20.20;75.20
9772;DHT22;4925;52.588;13.370;2023-04-10T13:40:10;20.30;74.80
9772;DHT22;4925;52.588;13.370;2023-04-10T13:42:36;20.10;75.80
9772;DHT22;4925;52.588;13.370;2023-04-10T13:45:02;19.50;76.60
9772;DHT22;4925;52.588;13.370;2023-04-10T13:47:27;19.40;78.30
9772;DHT22;4925;52.588;13.370;2023-04-10T13:49:53;19.60;78.70
9772;DHT22;4925;52.588;13.370;2023-04-10T13:52:19;19.50;78.80
9772;DHT22;4925;52.588;13.370;2023-04-10T13:54:45;19.40;79.60
9772;DHT22;4925;52.588;13.370;2023-04-10T13:57:10;19.30;80.50
9772;DHT22;4925;52.588;13.370;2023-04-10T13:59:36;19.30;80.70
9772;DHT22;4925;52.588;13.370;2023-04-10T14:02:02;19.20;80.40
9772;DHT22;4925;52.588;13.370;2023-04-10T14:04:27;19.00;80.80
9772;DHT22;4925;52.588;13.370;2023-04-10T14:06:53;18.80;82.70
9772;DHT22;4925;52.588;13.370;2023-04-10T14:09:22;18.50;83.70
9772;DHT22;4925;52.588;13.370;2023-04-10T14:11:48;18.30;86.30
9772;DHT22;4925;52.588;13.370;2023-04-10T14:14:13;18.50;86.20
9772;DHT22;4925;52.588;13.370;2023-04-10T14:16:39;18.40;86.30
9772;DHT22;4925;52.588;13.370;2023-04-10T14:19:05;18.10;86.50
9772;DHT22;4925;52.588;13.370;2023-04-10T14:21:30;18.30;87.00
9772;DHT22;4925;52.588;13.370;2023-04-10T14:23:56;18.60;87.70
9772;DHT22;4925;52.588;13.370;2023-04-10T14:26:24;18.60;84.60
9772;DHT22;4925;52.588;13.370;2023-04-10T14:28:50;18.50;83.40
9772;DHT22;4925;52.588;13.370;2023-04-10T14:31:16;18.80;84.10
9772;DHT22;4925;52.588;13.370;2023-04-10T14:33:42;18.90;83.90
9772;DHT22;4925;52.588;13.370;2023-04-10T14:36:08;19.30;83.40
9772;DHT22;4925;52.588;13.370;2023-04-10T14:38:34;19.50;82.00
9772;DHT22;4925;52.588;13.370;2023-04-10T14:41:01;19.40;81.20
9772;DHT22;4925;52.588;13.370;2023-04-10T14:43:27;19.60;80.90
9772;DHT22;4925;52.588;13.370;2023-04-10T14:45:53;19.50;79.40
9772;DHT22;4925;52.588;13.370;2023-04-10T14:48:18;19.80;80.00
9772;DHT22;4925;52.588;13.370;2023-04-10T14:50:46;20.00;79.40
9772;DHT22;4925;52.588;13.370;2023-04-10T14:53:12;19.90;79.30
9772;DHT22;4925;52.588;13.370;2023-04-10T14:55:38;20.00;79.90
9772;DHT22;4925;52.588;13.370;2023-04-10T14:58:03;20.20;80.10
9772;DHT22;4925;52.588;13.370;2023-04-10T15:00:31;20.00;79.10
9772;DHT22;4925;52.588;13.370;2023-04-10T15:02:57;19.90;80.30
9772;DHT22;4925;52.588;13.370;2023-04-10T15:05:24;19.70;80.90
9772;DHT22;4925;52.588;13.370;2023-04-10T15:07:50;19.70;82.20
9772;DHT22;4925;52.588;13.370;2023-04-10T15:10:16;19.40;80.00
9772;DHT22;4925;52.588;13.370;2023-04-10T15:12:42;19.30;80.00
9772;DHT22;4925;52.588;13.370;2023-04-10T15:15:08;19.10;81.90
9772;DHT22;4925;52.588;13.370;2023-04-10T15:17:33;19.20;81.30
9772;DHT22;4925;52.588;13.370;2023-04-10T15:19:59;19.40;79.80
9772;DHT22;4925;52.588;13.370;2023-04-10T15:22:25;19.30;79.20
9772;DHT22;4925;52.588;13.370;2023-04-10T15:24:51;19.50;79.50
9772;DHT22;4925;52.588;13.370;2023-04-10T15:27:19;19.30;79.20
9772;DHT22;4925;52.588;13.370;2023-04-10T15:29:45;19.20;79.30
9772;DHT22;4925;52.588;13.370;2023-04-10T15:32:11;18.90;79.50
9772;DHT22;4925;52.588;13.370;2023-04-10T15:34:37;18.70;81.20
9772;DHT22;4925;52.588;13.370;2023-04-10T15:37:02;19.10;81.70
9772;DHT22;4925;52.588;13.370;2023-04-10T15:39:28;19.10;81.00
9772;DHT22;4925;52.588;13.370;2023-04-10T15:41:56;19.10;81.10
9772;DHT22;4925;52.588;13.370;2023-04-10T15:44:27;18.80;81.30
9772;DHT22;4925;52.588;13.370;2023-04-10T15:46:52;18.90;81.70
9772;DHT22;4925;52.588;13.370;2023-04-10T15:49:18;19.10;81.10
9772;DHT22;4925;52.588;13.370;2023-04-10T15:51:45;18.90;79.50
9772;DHT22;4925;52.588;13.370;2023-04-10T15:54:10;18.80;79.10
9772;DHT22;4925;52.588;13.370;2023-04-10T15:56:36;18.70;78.30
9772;DHT22;4925;52.588;13.370;2023-04-10T15:59:02;18.70;78.90
9772;DHT22;4925;52.588;13.370;2023-04-10T16:01:28;18.60;78.40
9772;DHT22;4925;52.588;13.370;2023-04-10T16:03:54;18.50;79.10
9772;DHT22;4925;52.588;13.370;2023-04-10T16:06:19;18.20;80.20
9772;DHT22;4925;52.588;13.370;2023-04-10T16:08:45;18.20;80.20
9772;DHT22;4925;52.588;13.370;2023-04-10T16:11:11;18.00;80.80
9772;DHT22;4925;52.588;13.370;2023-04-10T16:13:36;17.90;81.10
9772;DHT22;4925;52.588;13.370;2023-04-10T16:16:02;17.70;81.60
9772;DHT22;4925;52.588;13.370;2023-04-10T16:18:29;17.70;81.30
9772;DHT22;4925;52.588;13.370;2023-04-10T16:20:54;17.90;81.00